Time;durP1;ratioP1;P1;durP2;ratioP2;P2;SDS_P1;SDS_P2;PMS_P1;PMS_P2;Temp;Humidity;BMP_temperature;BMP_pressure;BME280_temperature;BME280_humidity;BME280_pressure;Samples;Min_cycle;Max_cycle;Signal;HPM_P1;HPM_P2
2023/02/24 00:00:37;;;;;;;;;;;;;;;8.33;77.52;99776.47;5030831;28;19949;-74
2023/02/24 00:03:04;;;;;;;;;;;;;;;8.03;79.01;99754.53;5031991;28;20749;-74
2023/02/24 00:05:29;;;;;;;;;;;;;;;8.01;77.17;99753.72;5032771;28;20012;-74
2023/02/24 00:07:55;;;;;;;;;;;;;;;7.77;76.33;99747.09;5030865;28;19979;-74
2023/02/24 00:10:20;;;;;;;;;;;;;;;7.59;72.92;99760.91;5027134;28;19920;-74
2023/02/24 00:12:48;;;;;;;;;;;;;;;7.42;69.96;99777.25;5032729;28;19921;-74
2023/02/24 00:15:14;;;;;;;;;;;;;;;7.02;66.91;99786.88;5029449;28;19916;-74
2023/02/24 00:17:39;;;;;;;;;;;;;;;6.84;63.20;99813.41;5032588;28;19917;-74
2023/02/24 00:20:06;;;;;;;;;;;;;;;7.20;58.11;99867.91;5032227;28;19939;-74
2023/02/24 00:22:31;;;;;;;;;;;;;;;7.49;56.50;99901.94;5029070;28;19997;-74
2023/02/24 00:25:01;;;;;;;;;;;;;;;7.15;58.10;99896.09;5028960;28;20027;-74
2023/02/24 00:27:27;;;;;;;;;;;;;;;6.49;56.79;99886.88;5030542;28;19921;-74
2023/02/24 00:29:52;;;;;;;;;;;;;;;6.54;55.24;99912.44;5033038;28;19917;-74
2023/02/24 00:32:17;;;;;;;;;;;;;;;6.46;55.03;99932.09;5032370;28;20464;-74
2023/02/24 00:34:42;;;;;;;;;;;;;;;6.64;54.61;99970.47;5027728;28;20444;-74
2023/02/24 00:37:08;;;;;;;;;;;;;;;6.47;56.41;99977.28;5029007;28;20308;-74
2023/02/24 00:39:33;;;;;;;;;;;;;;;6.68;55.67;99995.22;5029403;28;20475;-74
2023/02/24 00:42:05;;;;;;;;;;;;;;;6.89;56.52;99996.91;5031692;28;20594;-74
2023/02/24 00:44:34;;;;;;;;;;;;;;;7.41;56.54;100011.31;5029786;28;19924;-74
2023/02/24 00:47:01;;;;;;;;;;;;;;;7.02;59.08;99943.94;5029722;28;19917;-74
2023/02/24 00:49:26;;;;;;;;;;;;;;;7.64;57.20;99943.72;5029364;28;19956;-74
2023/02/24 00:51:53;;;;;;;;;;;;;;;7.87;61.53;99907.72;5030881;28;19968;-74
2023/02/24 00:54:18;;;;;;;;;;;;;;;7.65;67.91;99830.91;5028686;28;20330;-74
2023/02/24 00:56:45;;;;;;;;;;;;;;;7.56;69.52;99794.25;5019520;28;19917;-74
2023/02/24 00:59:11;;;;;;;;;;;;;;;7.21;72.73;99757.75;5028561;28;19929;-74
2023/02/24 01:01:37;;;;;;;;;;;;;;;7.21;71.00;99754.34;5030806;28;19916;-74
2023/02/24 01:04:09;;;;;;;;;;;;;;;7.28;72.43;99738.91;5032759;28;19970;-74
2023/02/24 01:06:35;;;;;;;;;;;;;;;7.11;72.98;99723.63;5029243;28;19920;-74
2023/02/24 01:09:01;;;;;;;;;;;;;;;7.07;73.07;99715.97;5027388;28;20587;-74
2023/02/24 01:14:15;;;;;;;;;;;;;;;7.21;72.12;99721.03;5029942;28;19924;-73
2023/02/24 01:16:43;;;;;;;;;;;;;;;6.64;72.79;99701.72;5028786;28;19955;-74
2023/02/24 01:19:09;;;;;;;;;;;;;;;6.63;69.39;99707.69;5029431;28;20043;-74
2023/02/24 01:21:34;;;;;;;;;;;;;;;6.72;67.51;99731.56;5028281;28;20011;-73
2023/02/24 01:23:59;;;;;;;;;;;;;;;6.95;66.00;99751.91;5031339;28;19921;-74
2023/02/24 01:26:25;;;;;;;;;;;;;;;6.83;66.03;99755.38;5029266;28;19917;-73
2023/02/24 01:28:50;;;;;;;;;;;;;;;6.73;64.08;99758.84;5029803;28;19928;-73
2023/02/24 01:31:19;;;;;;;;;;;;;;;6.61;62.95;99768.25;5027826;28;19921;-73
2023/02/24 01:33:51;;;;;;;;;;;;;;;6.59;62.83;99777.69;5030111;28;20261;-74
2023/02/24 01:36:20;;;;;;;;;;;;;;;6.49;62.20;99776.00;5029229;28;19917;-73
2023/02/24 01:38:48;;;;;;;;;;;;;;;6.88;60.73;99798.03;5030572;28;19920;-74
2023/02/24 01:41:15;;;;;;;;;;;;;;;6.56;64.19;99777.66;5027523;28;19916;-74
2023/02/24 01:43:53;;;;;;;;;;;;;;;6.53;63.19;99770.00;5028479;28;20011;-74
2023/02/24 01:46:22;;;;;;;;;;;;;;;6.63;63.92;99768.25;5030463;28;19966;-73
2023/02/24 01:48:47;;;;;;;;;;;;;;;6.78;62.66;99773.34;5027752;28;20000;-74
2023/02/24 01:51:12;;;;;;;;;;;;;;;6.76;62.74;99771.63;5030512;28;19996;-74
2023/02/24 01:53:38;;;;;;;;;;;;;;;6.75;62.59;99767.34;5027672;28;21024;-73
2023/02/24 01:56:05;;;;;;;;;;;;;;;6.59;62.84;99758.88;5029867;28;19917;-74
2023/02/24 01:58:32;;;;;;;;;;;;;;;6.73;62.79;99763.94;5028057;28;20842;-73
2023/02/24 02:00:57;;;;;;;;;;;;;;;6.35;63.82;99747.03;5028311;28;20303;-74
2023/02/24 02:03:28;;;;;;;;;;;;;;;6.17;62.69;99741.09;5030449;28;19913;-73
2023/02/24 02:05:55;;;;;;;;;;;;;;;6.00;61.17;99750.53;5029762;28;20018;-74
2023/02/24 02:08:20;;;;;;;;;;;;;;;6.27;58.91;99765.81;5025953;28;20302;-74
2023/02/24 02:10:48;;;;;;;;;;;;;;;6.22;59.31;99772.63;5028880;28;20016;-73
2023/02/24 02:13:13;;;;;;;;;;;;;;;5.93;59.19;99765.00;5027258;28;20012;-74
2023/02/24 02:16:05;;;;;;;;;;;;;;;6.03;57.84;99781.19;5027494;28;20936;-74
2023/02/24 02:18:35;;;;;;;;;;;;;;;6.17;57.59;99791.41;5003666;28;19928;-74
2023/02/24 02:21:14;;;;;;;;;;;;;;;6.26;58.23;99794.81;5029661;28;19917;-74
2023/02/24 02:24:03;;;;;;;;;;;;;;;5.97;59.18;99779.50;5030319;28;20006;-74
2023/02/24 02:26:28;;;;;;;;;;;;;;;5.81;59.35;99776.06;5028268;28;20501;-73
2023/02/24 02:29:02;;;;;;;;;;;;;;;6.08;58.03;99789.72;5027712;28;19932;-73
2023/02/24 02:31:38;;;;;;;;;;;;;;;5.89;60.14;99770.97;5028685;28;19974;-74
2023/02/24 02:34:06;;;;;;;;;;;;;;;6.30;58.98;99782.03;5024652;28;20553;-74
2023/02/24 02:36:35;;;;;;;;;;;;;;;6.50;60.58;99770.03;5027230;28;20311;-73
2023/02/24 02:39:04;;;;;;;;;;;;;;;6.23;62.17;99738.53;5023925;28;19917;-74
2023/02/24 02:41:33;;;;;;;;;;;;;;;6.21;62.18;99714.69;5027733;28;19924;-74
2023/02/24 02:44:06;;;;;;;;;;;;;;;6.58;61.07;99729.06;5026332;28;20524;-74
2023/02/24 02:46:36;;;;;;;;;;;;;;;6.93;61.27;99730.59;5025868;28;19963;-74
2023/02/24 02:49:24;;;;;;;;;;;;;;;6.78;65.34;99681.19;5025934;28;19927;-74
2023/02/24 02:51:50;;;;;;;;;;;;;;;6.93;66.38;99669.97;5024609;28;19937;-74
2023/02/24 02:54:31;;;;;;;;;;;;;;;6.60;69.74;99622.41;5031575;28;20007;-74
2023/02/24 02:57:04;;;;;;;;;;;;;;;6.63;68.94;99615.56;5028117;28;19970;-74
2023/02/24 02:59:30;;;;;;;;;;;;;;;6.73;68.75;99615.50;5030200;28;20371;-74
2023/02/24 03:02:00;;;;;;;;;;;;;;;6.67;68.89;99612.13;5029222;28;19935;-74
2023/02/24 03:04:25;;;;;;;;;;;;;;;6.15;70.51;99581.69;5027710;28;19987;-74
2023/02/24 03:06:52;;;;;;;;;;;;;;;5.85;68.12;99578.38;5029138;28;19956;-74
2023/02/24 03:09:19;;;;;;;;;;;;;;;6.22;63.17;99616.63;5028567;28;20387;-74
2023/02/24 03:11:48;;;;;;;;;;;;;;;6.25;62.58;99631.97;5029730;28;20351;-74
2023/02/24 03:14:15;;;;;;;;;;;;;;;5.99;61.80;99631.22;5030005;28;19989;-74
2023/02/24 03:16:40;;;;;;;;;;;;;;;6.02;60.19;99641.41;5032453;28;19928;-74
2023/02/24 03:19:06;;;;;;;;;;;;;;;5.90;59.61;99651.66;5031259;28;19914;-74
2023/02/24 03:21:33;;;;;;;;;;;;;;;5.74;58.38;99659.34;5032067;28;19917;-74
2023/02/24 03:23:58;;;;;;;;;;;;;;;5.71;57.44;99687.47;5031634;28;20390;-73
2023/02/24 03:26:27;;;;;;;;;;;;;;;5.72;58.32;99693.44;5032863;28;20012;-74
2023/02/24 03:29:07;;;;;;;;;;;;;;;5.62;59.64;99702.81;5031852;28;20571;-74
2023/02/24 03:31:35;;;;;;;;;;;;;;;5.41;61.10;99701.97;5031246;28;19931;-73
2023/02/24 03:34:02;;;;;;;;;;;;;;;5.85;60.02;99739.41;5031625;28;19921;-74
2023/02/24 03:36:28;;;;;;;;;;;;;;;5.58;62.06;99722.41;5044863;28;19995;-74
2023/02/24 03:38:53;;;;;;;;;;;;;;;5.61;62.19;99734.31;5028903;28;20403;-74
2023/02/24 03:41:18;;;;;;;;;;;;;;;5.45;63.58;99725.78;5032792;28;19917;-73
2023/02/24 03:43:44;;;;;;;;;;;;;;;5.66;62.46;99747.97;5031853;28;19990;-74
2023/02/24 03:46:09;;;;;;;;;;;;;;;5.61;63.04;99741.97;5032144;28;20005;-74
2023/02/24 03:48:36;;;;;;;;;;;;;;;5.90;62.79;99751.34;5031429;28;19950;-74
2023/02/24 03:51:02;;;;;;;;;;;;;;;5.84;62.74;99736.88;5023660;28;20530;-74
2023/02/24 03:53:37;;;;;;;;;;;;;;;5.73;62.74;99731.78;5030930;28;20484;-73
2023/02/24 03:56:12;;;;;;;;;;;;;;;5.98;61.71;99736.91;5031771;28;20600;-74
2023/02/24 03:58:37;;;;;;;;;;;;;;;5.49;64.71;99685.78;5029883;28;19917;-73
2023/02/24 04:01:13;;;;;;;;;;;;;;;5.56;62.84;99687.47;5028719;28;19989;-73
2023/02/24 04:03:42;;;;;;;;;;;;;;;5.70;60.98;99695.97;5029776;28;19978;-73
2023/02/24 04:06:11;;;;;;;;;;;;;;;5.58;62.76;99683.22;5029511;28;19921;-73
2023/02/24 04:08:45;;;;;;;;;;;;;;;6.05;62.30;99688.28;5030849;28;19944;-74
2023/02/24 04:11:21;;;;;;;;;;;;;;;6.63;63.16;99687.22;5030591;28;19928;-73
2023/02/24 04:13:47;;;;;;;;;;;;;;;6.36;69.00;99633.63;5028584;28;19916;-73
2023/02/24 04:16:26;;;;;;;;;;;;;;;6.56;70.05;99603.66;5029843;28;19921;-73
2023/02/24 04:18:52;;;;;;;;;;;;;;;6.55;73.62;99568.69;5031488;28;19940;-73
2023/02/24 04:21:17;;;;;;;;;;;;;;;6.62;77.86;99536.25;5029944;28;20395;-73
2023/02/24 04:23:42;;;;;;;;;;;;;;;6.11;81.71;99482.00;5027670;28;20297;-73
2023/02/24 04:26:08;;;;;;;;;;;;;;;6.34;82.85;99476.72;5027966;28;20399;-73
2023/02/24 04:28:33;;;;;;;;;;;;;;;6.32;83.95;99450.31;5028310;28;20384;-73
2023/02/24 04:31:00;;;;;;;;;;;;;;;6.86;83.90;99463.50;5028210;28;19940;-73
2023/02/24 04:33:25;;;;;;;;;;;;;;;6.13;91.00;99409.53;5030722;28;19917;-73
2023/02/24 04:35:52;;;;;;;;;;;;;;;5.80;92.13;99375.66;5032111;28;19923;-73
2023/02/24 04:38:17;;;;;;;;;;;;;;;6.05;89.88;99395.97;5028679;28;20497;-74
2023/02/24 04:40:42;;;;;;;;;;;;;;;5.85;91.46;99379.03;5029450;28;19928;-73
2023/02/24 04:43:08;;;;;;;;;;;;;;;5.85;90.67;99384.13;5025842;28;19959;-74
2023/02/24 04:45:33;;;;;;;;;;;;;;;5.93;89.79;99383.22;5029339;28;19921;-73
2023/02/24 04:48:01;;;;;;;;;;;;;;;6.00;89.13;99384.94;5030174;28;20522;-76
2023/02/24 04:50:28;;;;;;;;;;;;;;;6.24;90.63;99392.41;5032150;28;19922;-74
2023/02/24 04:52:54;;;;;;;;;;;;;;;5.86;93.76;99357.72;5033521;28;19917;-75
2023/02/24 04:55:21;;;;;;;;;;;;;;;5.97;93.09;99367.88;5038419;28;19917;-74
2023/02/24 04:57:46;;;;;;;;;;;;;;;6.25;93.61;99363.41;5038556;28;20398;-74
2023/02/24 05:00:21;;;;;;;;;;;;;;;6.53;95.96;99347.81;5028144;28;19971;-74
2023/02/24 05:02:50;;;;;;;;;;;;;;;6.21;100.00;99300.38;5027286;28;19956;-75
2023/02/24 05:05:16;;;;;;;;;;;;;;;6.41;100.00;99281.41;5023932;28;20421;-75
2023/02/24 05:07:46;;;;;;;;;;;;;;;5.87;100.00;99249.50;5039411;28;20000;-74
2023/02/24 05:10:11;;;;;;;;;;;;;;;5.79;100.00;99248.75;5034299;28;19917;-74
2023/02/24 05:12:38;;;;;;;;;;;;;;;6.15;100.00;99258.66;5036843;28;20031;-74
2023/02/24 05:15:05;;;;;;;;;;;;;;;6.25;100.00;99255.16;5023877;28;19963;-76
2023/02/24 05:17:30;;;;;;;;;;;;;;;5.69;100.00;99219.00;5019302;28;19949;-74
2023/02/24 05:22:39;;;;;;;;;;;;;;;6.12;100.00;99228.88;5022847;28;19998;-74
2023/02/24 05:25:05;;;;;;;;;;;;;;;6.33;100.00;99226.94;5026856;28;19982;-75
2023/02/24 05:27:30;;;;;;;;;;;;;;;6.41;100.00;99204.66;5024932;28;19925;-75
2023/02/24 05:29:55;;;;;;;;;;;;;;;7.72;100.00;99209.59;5025726;28;20435;-75
2023/02/24 05:32:21;;;;;;;;;;;;;;;6.78;100.00;99115.47;5023143;28;20612;-75
2023/02/24 05:34:46;;;;;;;;;;;;;;;6.18;100.00;99067.72;5018473;28;19925;-76
2023/02/24 05:37:15;;;;;;;;;;;;;;;6.20;100.00;99053.19;5025014;28;20549;-76
2023/02/24 05:39:40;;;;;;;;;;;;;;;6.64;100.00;99063.66;5026565;28;19961;-75
2023/02/24 05:42:06;;;;;;;;;;;;;;;6.08;100.00;99033.72;5024349;28;20602;-76
2023/02/24 05:44:31;;;;;;;;;;;;;;;5.82;100.00;99031.47;5026713;28;19920;-75
2023/02/24 05:46:59;;;;;;;;;;;;;;;6.35;100.00;99039.34;5023715;28;20367;-75
2023/02/24 05:49:28;;;;;;;;;;;;;;;6.83;100.00;99041.16;5019800;28;19924;-75
2023/02/24 05:51:54;;;;;;;;;;;;;;;6.68;100.00;99003.84;5023079;28;19929;-75
2023/02/24 05:54:21;;;;;;;;;;;;;;;7.19;100.00;98977.41;5024917;28;19928;-75
2023/02/24 05:56:46;;;;;;;;;;;;;;;6.42;100.00;98930.09;5026790;28;19927;-75
2023/02/24 05:59:16;;;;;;;;;;;;;;;6.64;100.00;98921.19;5024960;28;20294;-75
2023/02/24 06:01:45;;;;;;;;;;;;;;;6.09;100.00;98891.41;5023823;28;19923;-74
2023/02/24 06:04:19;;;;;;;;;;;;;;;6.44;100.00;98893.38;5026059;28;19947;-75
2023/02/24 06:06:45;;;;;;;;;;;;;;;5.97;100.00;98869.41;5027445;28;19983;-75
2023/02/24 06:09:11;;;;;;;;;;;;;;;6.25;100.00;98869.84;5026747;28;20311;-75
2023/02/24 06:11:37;;;;;;;;;;;;;;;6.54;100.00;98871.03;5021179;28;19925;-75
2023/02/24 06:14:05;;;;;;;;;;;;;;;6.05;100.00;98851.44;5021781;28;20351;-75
2023/02/24 06:16:31;;;;;;;;;;;;;;;6.07;100.00;98850.53;5024739;28;19975;-76
2023/02/24 06:18:56;;;;;;;;;;;;;;;6.10;100.00;98841.97;5026200;28;19917;-75
2023/02/24 06:21:22;;;;;;;;;;;;;;;6.23;100.00;98838.34;5024510;28;20485;-75
2023/02/24 06:23:47;;;;;;;;;;;;;;;6.00;100.00;98815.72;5025941;28;19921;-76
2023/02/24 06:26:17;;;;;;;;;;;;;;;5.95;100.00;98816.66;5022653;28;19917;-75
2023/02/24 06:28:43;;;;;;;;;;;;;;;6.25;100.00;98816.13;5008984;28;19964;-75
2023/02/24 06:31:09;;;;;;;;;;;;;;;6.27;100.00;98809.28;5026629;28;20055;-76
2023/02/24 06:33:35;;;;;;;;;;;;;;;5.70;100.00;98794.00;5027458;28;20364;-76
2023/02/24 06:36:02;;;;;;;;;;;;;;;5.27;100.00;98781.88;5025461;28;19936;-75
2023/02/24 06:38:27;;;;;;;;;;;;;;;6.17;100.00;98814.59;5025838;28;19924;-75
2023/02/24 06:40:56;;;;;;;;;;;;;;;5.65;100.00;98799.19;5026463;28;19917;-75
2023/02/24 06:43:21;;;;;;;;;;;;;;;5.71;100.00;98797.41;5024650;28;19921;-76
2023/02/24 06:45:46;;;;;;;;;;;;;;;5.94;100.00;98803.03;5024127;28;19913;-75
2023/02/24 06:48:12;;;;;;;;;;;;;;;5.86;100.00;98803.13;5027769;28;19920;-75
2023/02/24 06:50:37;;;;;;;;;;;;;;;6.51;100.00;98811.44;5027546;28;19925;-75
2023/02/24 06:53:02;;;;;;;;;;;;;;;6.28;100.00;98794.78;5025492;28;19958;-75
2023/02/24 06:55:27;;;;;;;;;;;;;;;6.14;100.00;98784.81;5023166;28;19921;-76
2023/02/24 06:57:57;;;;;;;;;;;;;;;6.51;100.00;98790.97;5027940;28;19912;-75
2023/02/24 07:00:26;;;;;;;;;;;;;;;6.31;100.00;98773.41;5029093;28;19925;-75
2023/02/24 07:02:51;;;;;;;;;;;;;;;6.24;100.00;98767.56;5028010;28;19928;-76
2023/02/24 07:05:17;;;;;;;;;;;;;;;5.86;100.00;98757.13;5029202;28;19921;-75
2023/02/24 07:07:44;;;;;;;;;;;;;;;6.41;100.00;98775.78;5028905;28;19964;-75
2023/02/24 07:10:12;;;;;;;;;;;;;;;6.13;100.00;98756.69;5027049;28;19976;-76
2023/02/24 07:12:38;;;;;;;;;;;;;;;6.14;100.00;98755.84;5024549;28;20369;-74
2023/02/24 07:15:05;;;;;;;;;;;;;;;7.11;100.00;98770.94;5024551;28;20119;-75
2023/02/24 07:17:30;;;;;;;;;;;;;;;6.37;100.00;98747.75;5024593;28;20011;-75
2023/02/24 07:20:01;;;;;;;;;;;;;;;6.17;100.00;98751.50;5024783;28;20465;-75
2023/02/24 07:22:30;;;;;;;;;;;;;;;6.44;100.00;98755.25;5030265;28;20283;-75
2023/02/24 07:24:59;;;;;;;;;;;;;;;6.30;100.00;98746.19;5027479;28;19917;-75
2023/02/24 07:27:26;;;;;;;;;;;;;;;7.95;100.00;98773.25;5025457;28;19923;-75
2023/02/24 07:29:52;;;;;;;;;;;;;;;6.65;100.00;98728.41;5025643;28;19971;-75
2023/02/24 07:32:17;;;;;;;;;;;;;;;7.00;100.00;98734.50;5022712;28;19924;-75
2023/02/24 07:34:43;;;;;;;;;;;;;;;6.70;100.00;98715.50;5029306;28;19917;-75
2023/02/24 07:37:08;;;;;;;;;;;;;;;7.17;100.00;98728.16;5033274;28;20015;-75
2023/02/24 07:39:35;;;;;;;;;;;;;;;5.63;100.00;98700.44;5028253;28;19917;-75
2023/02/24 07:42:00;;;;;;;;;;;;;;;7.31;100.00;98744.88;5032253;28;19920;-75
2023/02/24 07:44:28;;;;;;;;;;;;;;;7.16;100.00;98729.03;5031977;28;20269;-75
2023/02/24 07:46:53;;;;;;;;;;;;;;;7.64;100.00;98721.94;5030389;28;19917;-75
2023/02/24 07:49:19;;;;;;;;;;;;;;;7.19;100.00;98696.53;5030828;28;19931;-75
2023/02/24 07:51:46;;;;;;;;;;;;;;;7.76;100.00;98697.69;5029621;28;19917;-73
2023/02/24 07:54:14;;;;;;;;;;;;;;;6.59;100.00;98651.78;5029284;28;19921;-73
2023/02/24 07:56:44;;;;;;;;;;;;;;;6.87;100.00;98663.97;5030585;28;19921;-73
2023/02/24 07:59:14;;;;;;;;;;;;;;;6.62;100.00;98653.44;5029407;28;19921;-73
2023/02/24 08:01:40;;;;;;;;;;;;;;;7.28;100.00;98667.28;5029687;28;19921;-73
2023/02/24 08:04:11;;;;;;;;;;;;;;;7.19;100.00;98647.88;5030052;28;20008;-73
2023/02/24 08:06:37;;;;;;;;;;;;;;;6.60;100.00;98622.75;5030040;28;19913;-73
2023/02/24 08:09:19;;;;;;;;;;;;;;;7.56;100.00;98641.00;5024756;28;19926;-73
2023/02/24 08:11:50;;;;;;;;;;;;;;;7.00;100.00;98613.31;5027555;28;19952;-73
2023/02/24 08:14:16;;;;;;;;;;;;;;;7.15;100.00;98619.81;5032555;28;20000;-74
2023/02/24 08:16:45;;;;;;;;;;;;;;;5.86;100.00;98585.03;5030585;28;20016;-73
2023/02/24 08:19:12;;;;;;;;;;;;;;;5.86;100.00;98587.59;5030883;28;19913;-73
2023/02/24 08:21:46;;;;;;;;;;;;;;;5.86;100.00;98611.47;5034248;28;19921;-75
2023/02/24 08:24:16;;;;;;;;;;;;;;;6.96;100.00;98635.59;5031071;28;19949;-73
2023/02/24 08:26:43;;;;;;;;;;;;;;;6.95;100.00;98633.91;5028272;28;19913;-73
2023/02/24 08:29:09;;;;;;;;;;;;;;;5.75;100.00;98589.56;5029121;28;19965;-74
2023/02/24 08:31:34;;;;;;;;;;;;;;;6.07;100.00;98611.94;5021970;28;19917;-74
2023/02/24 08:33:59;;;;;;;;;;;;;;;6.21;100.00;98612.50;5020417;28;19951;-73
2023/02/24 08:36:24;;;;;;;;;;;;;;;5.40;100.00;98591.03;5026960;28;19924;-73
2023/02/24 08:38:50;;;;;;;;;;;;;;;7.01;100.00;98644.00;5023379;28;19917;-73
2023/02/24 08:41:18;;;;;;;;;;;;;;;5.87;100.00;98602.91;5019991;28;19924;-72
2023/02/24 08:43:45;;;;;;;;;;;;;;;5.84;100.00;98613.22;5027399;28;19920;-72
2023/02/24 08:46:16;;;;;;;;;;;;;;;5.52;100.00;98623.16;5025255;28;20514;-72
2023/02/24 08:49:00;;;;;;;;;;;;;;;5.70;100.00;98633.03;5024718;28;19925;-72
2023/02/24 08:51:33;;;;;;;;;;;;;;;5.77;100.00;98638.88;5027197;28;20556;-72
2023/02/24 08:54:00;;;;;;;;;;;;;;;5.54;100.00;98636.75;5023725;28;20055;-72
2023/02/24 08:56:28;;;;;;;;;;;;;;;5.42;100.00;98641.19;5025569;28;19959;-72
2023/02/24 08:59:03;;;;;;;;;;;;;;;5.03;100.00;98635.03;5028693;28;19931;-72
2023/02/24 09:01:36;;;;;;;;;;;;;;;6.21;100.00;98655.97;5026957;28;19927;-72
2023/02/24 09:04:03;;;;;;;;;;;;;;;5.53;100.00;98646.13;5026615;28;19967;-72
2023/02/24 09:06:37;;;;;;;;;;;;;;;5.32;100.00;98629.47;5025950;28;19916;-72
2023/02/24 09:09:17;;;;;;;;;;;;;;;5.83;100.00;98647.28;5024650;28;20076;-72
2023/02/24 09:12:01;;;;;;;;;;;;;;;5.45;100.00;98638.59;5026238;28;19916;-72
2023/02/24 09:14:27;;;;;;;;;;;;;;;5.31;100.00;98634.59;5027542;28;19913;-72
2023/02/24 09:17:01;;;;;;;;;;;;;;;5.68;100.00;98644.16;5025565;28;19979;-72
2023/02/24 09:22:13;;;;;;;;;;;;;;;6.21;100.00;98655.13;5026061;28;19921;-72
2023/02/24 09:24:39;;;;;;;;;;;;;;;6.55;100.00;98660.41;5029281;28;19944;-72
2023/02/24 09:27:04;;;;;;;;;;;;;;;6.00;100.00;98634.22;5024092;28;20313;-73
2023/02/24 09:29:32;;;;;;;;;;;;;;;5.81;100.00;98618.34;5026446;28;19920;-72
2023/02/24 09:32:04;;;;;;;;;;;;;;;6.25;100.00;98626.91;5027487;28;19916;-72
2023/02/24 09:34:33;;;;;;;;;;;;;;;5.82;100.00;98617.50;5026546;28;20835;-72
2023/02/24 09:37:01;;;;;;;;;;;;;;;5.71;100.00;98609.19;5023573;28;19952;-72
2023/02/24 09:39:27;;;;;;;;;;;;;;;5.55;100.00;98595.03;5026655;28;19948;-73
2023/02/24 09:41:55;;;;;;;;;;;;;;;6.68;100.00;98620.00;5026499;28;19965;-73
2023/02/24 09:44:43;;;;;;;;;;;;;;;6.07;100.00;98578.72;5023994;28;19970;-72
2023/02/24 09:47:08;;;;;;;;;;;;;;;5.93;100.00;98573.00;5024063;28;19913;-72
2023/02/24 09:49:48;;;;;;;;;;;;;;;5.84;100.00;98566.38;5026427;28;19923;-73
2023/02/24 09:52:16;;;;;;;;;;;;;;;5.42;100.00;98545.88;5026587;28;19951;-73
2023/02/24 09:54:52;;;;;;;;;;;;;;;5.89;100.00;98551.78;5026116;28;19916;-72
2023/02/24 09:57:17;;;;;;;;;;;;;;;5.67;100.00;98533.47;5027188;28;19970;-73
2023/02/24 09:59:59;;;;;;;;;;;;;;;6.05;100.00;98542.13;5025501;28;20342;-72
2023/02/24 10:02:31;;;;;;;;;;;;;;;5.33;100.00;98506.03;5024157;28;19918;-72
2023/02/24 10:05:05;;;;;;;;;;;;;;;6.16;100.00;98516.28;5027924;28;19975;-72
2023/02/24 10:07:37;;;;;;;;;;;;;;;5.60;100.00;98493.59;5024169;28;19956;-72
2023/02/24 10:10:26;;;;;;;;;;;;;;;5.08;100.00;98480.09;5025290;28;20032;-72
2023/02/24 10:12:57;;;;;;;;;;;;;;;6.12;100.00;98487.44;5027464;28;19917;-73
2023/02/24 10:15:43;;;;;;;;;;;;;;;5.51;100.00;98468.25;5021328;28;19913;-72
2023/02/24 10:18:25;;;;;;;;;;;;;;;5.82;100.00;98458.25;5010526;28;20415;-73
2023/02/24 10:20:52;;;;;;;;;;;;;;;6.19;100.00;98455.72;5024486;28;19948;-72
2023/02/24 10:23:31;;;;;;;;;;;;;;;6.06;100.00;98447.47;5020737;28;19921;-72
2023/02/24 10:26:29;;;;;;;;;;;;;;;5.97;100.00;98426.41;5028147;28;19923;-72
2023/02/24 10:29:07;;;;;;;;;;;;;;;6.36;100.00;98428.91;5025974;28;19936;-72
2023/02/24 10:31:46;;;;;;;;;;;;;;;5.86;100.00;98406.16;5023900;28;19913;-72
2023/02/24 10:34:12;;;;;;;;;;;;;;;6.46;100.00;98430.38;5020727;28;20015;-72
2023/02/24 10:36:39;;;;;;;;;;;;;;;6.44;100.00;98414.22;5023039;28;19967;-73
2023/02/24 10:39:24;;;;;;;;;;;;;;;5.90;100.00;98400.13;5026372;28;20320;-72
2023/02/24 10:42:16;;;;;;;;;;;;;;;5.90;100.00;98410.34;5023069;28;19928;-72
2023/02/24 10:44:50;;;;;;;;;;;;;;;6.87;100.00;98431.06;5024869;28;19991;-72
2023/02/24 10:47:16;;;;;;;;;;;;;;;6.64;100.00;98416.28;5023455;28;19917;-72
2023/02/24 10:49:57;;;;;;;;;;;;;;;6.49;100.00;98425.19;5024069;28;19927;-73
2023/02/24 10:58:36;;;;;;;;;;;;;;;6.40;100.00;98430.53;4966444;28;19917;-72
2023/02/24 11:01:17;;;;;;;;;;;;;;;6.65;100.00;98441.81;5007715;28;19913;-74
2023/02/24 11:04:21;;;;;;;;;;;;;;;5.91;100.00;98417.16;5021897;28;19917;-72
2023/02/24 11:06:54;;;;;;;;;;;;;;;5.69;100.00;98442.31;5024907;28;19928;-72
2023/02/24 11:17:25;;;;;;;;;;;;;;;5.90;100.00;98463.19;5025589;28;19932;-72
2023/02/24 11:20:13;;;;;;;;;;;;;;;4.69;100.00;98446.78;5024048;28;20504;-72
2023/02/24 11:22:39;;;;;;;;;;;;;;;5.16;100.00;98483.38;4997070;28;19925;-72
2023/02/24 11:25:28;;;;;;;;;;;;;;;5.59;100.00;98497.88;5026086;28;20003;-72
2023/02/24 11:27:54;;;;;;;;;;;;;;;5.68;100.00;98503.66;5017014;28;19936;-73
2023/02/24 11:30:35;;;;;;;;;;;;;;;5.24;100.00;98490.88;5026212;28;20609;-73
2023/02/24 11:33:03;;;;;;;;;;;;;;;5.34;100.00;98510.28;5025768;28;19925;-73
2023/02/24 11:35:31;;;;;;;;;;;;;;;6.23;100.00;98531.50;5028973;28;19927;-72
2023/02/24 11:38:08;;;;;;;;;;;;;;;6.19;100.00;98518.81;5030639;28;20402;-72
2023/02/24 11:40:38;;;;;;;;;;;;;;;6.56;100.00;98513.69;5028277;28;19917;-73
2023/02/24 11:43:32;;;;;;;;;;;;;;;6.25;100.00;98493.94;5027249;28;20569;-72
2023/02/24 11:45:59;;;;;;;;;;;;;;;6.20;100.00;98475.31;5012282;28;20048;-72
2023/02/24 11:48:31;;;;;;;;;;;;;;;5.74;100.00;98460.94;5026128;28;19956;-72
2023/02/24 11:51:15;;;;;;;;;;;;;;;6.33;100.00;98487.81;5032568;28;20356;-72
2023/02/24 11:53:52;;;;;;;;;;;;;;;5.82;100.00;98460.78;5028585;28;19917;-73
2023/02/24 11:56:32;;;;;;;;;;;;;;;6.69;100.00;98479.25;5028429;28;19942;-72
2023/02/24 11:59:00;;;;;;;;;;;;;;;6.26;100.00;98457.25;5030281;28;19974;-72
2023/02/24 12:01:25;;;;;;;;;;;;;;;6.22;100.00;98462.47;5028957;28;19917;-73
2023/02/24 12:03:52;;;;;;;;;;;;;;;5.91;100.00;98447.81;5028409;28;20009;-72
2023/02/24 12:06:44;;;;;;;;;;;;;;;6.58;100.00;98471.00;5029394;28;19959;-72
2023/02/24 12:09:14;;;;;;;;;;;;;;;6.31;100.00;98452.03;5026830;28;19925;-72
2023/02/24 12:11:48;;;;;;;;;;;;;;;5.86;100.00;98439.38;5029490;28;19929;-72
2023/02/24 12:14:16;;;;;;;;;;;;;;;6.13;100.00;98460.97;5030080;28;19931;-72
2023/02/24 12:16:44;;;;;;;;;;;;;;;5.06;100.00;98412.09;5029097;28;19964;-72
2023/02/24 12:19:10;;;;;;;;;;;;;;;6.68;100.00;98487.81;5029426;28;19943;-72
2023/02/24 12:21:38;;;;;;;;;;;;;;;6.00;100.00;98441.69;5027786;28;20024;-72
2023/02/24 12:24:05;;;;;;;;;;;;;;;5.99;100.00;98451.06;5026527;28;19916;-72
2023/02/24 12:26:54;;;;;;;;;;;;;;;5.56;100.00;98446.00;5026859;28;19955;-72
2023/02/24 12:29:26;;;;;;;;;;;;;;;6.34;100.00;98466.47;5029495;28;19924;-73
2023/02/24 12:32:10;;;;;;;;;;;;;;;6.03;100.00;98462.91;5037766;28;20769;-73
2023/02/24 12:34:38;;;;;;;;;;;;;;;5.92;100.00;98474.22;5028281;28;19917;-72
2023/02/24 12:37:06;;;;;;;;;;;;;;;6.20;100.00;98500.88;5029322;28;19920;-72
2023/02/24 12:39:52;;;;;;;;;;;;;;;5.38;100.00;98463.41;5028580;28;19921;-73
2023/02/24 12:42:23;;;;;;;;;;;;;;;5.07;100.00;98457.19;5025436;28;19929;-72
2023/02/24 12:44:51;;;;;;;;;;;;;;;5.40;100.00;98471.84;5021809;28;19925;-72
2023/02/24 12:47:21;;;;;;;;;;;;;;;5.68;100.00;98471.31;5026469;28;20292;-72
2023/02/24 12:50:05;;;;;;;;;;;;;;;6.26;100.00;98487.94;5025832;28;19925;-72
2023/02/24 12:52:47;;;;;;;;;;;;;;;5.86;100.00;98473.47;5027449;28;19925;-72
2023/02/24 12:55:15;;;;;;;;;;;;;;;5.63;100.00;98468.84;5027012;28;19928;-72
2023/02/24 12:57:50;;;;;;;;;;;;;;;6.47;100.00;98490.88;5025465;28;19917;-72
2023/02/24 13:00:35;;;;;;;;;;;;;;;6.21;100.00;98471.88;5027327;28;19921;-73
2023/02/24 13:03:21;;;;;;;;;;;;;;;6.18;100.00;98471.09;5025037;28;19917;-72
2023/02/24 13:05:57;;;;;;;;;;;;;;;5.75;100.00;98437.09;5027940;28;20528;-72
2023/02/24 13:08:41;;;;;;;;;;;;;;;6.35;100.00;98474.13;5024757;28;19921;-72
2023/02/24 13:11:11;;;;;;;;;;;;;;;6.03;100.00;98462.06;5027247;28;20330;-72
2023/02/24 13:13:42;;;;;;;;;;;;;;;5.68;100.00;98443.22;5028438;28;19983;-72
2023/02/24 13:16:09;;;;;;;;;;;;;;;6.80;100.00;98468.75;5024525;28;19917;-72
2023/02/24 13:18:35;;;;;;;;;;;;;;;5.94;100.00;98427.31;5025288;28;19928;-72
2023/02/24 13:21:26;;;;;;;;;;;;;;;6.17;100.00;98438.75;5025812;28;20011;-72
2023/02/24 13:23:56;;;;;;;;;;;;;;;6.04;100.00;98438.19;5022420;28;19916;-73
2023/02/24 13:26:22;;;;;;;;;;;;;;;5.96;100.00;98445.19;5007185;28;20465;-72